createdAt,value
2022-12-15T00:02:19.002Z,32.88
2022-12-15T00:07:50.747Z,32.70
2022-12-15T00:10:36.852Z,31.65
2022-12-15T00:13:23.020Z,33.13
2022-12-15T00:16:08.958Z,32.67
2022-12-15T00:18:54.910Z,32.80
2022-12-15T00:21:40.984Z,31.88
2022-12-15T00:24:26.893Z,34.28
2022-12-15T00:27:12.831Z,33.60
2022-12-15T00:29:58.917Z,32.00
2022-12-15T00:32:44.800Z,30.05
2022-12-15T00:35:30.979Z,30.52
2022-12-15T00:38:16.740Z,30.10
2022-12-15T00:40:43.907Z,31.75
2022-12-15T00:43:12.019Z,30.27
2022-12-15T00:45:58.056Z,32.35
2022-12-15T00:48:25.225Z,29.92
2022-12-15T00:50:52.346Z,30.88
2022-12-15T00:53:38.917Z,30.38
2022-12-15T00:56:24.935Z,30.50
2022-12-15T00:59:10.765Z,29.30
2022-12-15T01:01:56.776Z,29.88
2022-12-15T01:04:42.717Z,30.00
2022-12-15T01:07:28.804Z,29.50
2022-12-15T01:10:14.589Z,30.92
2022-12-15T01:13:00.326Z,30.63
2022-12-15T01:15:46.542Z,30.10
2022-12-15T01:18:32.324Z,29.67
2022-12-15T01:21:00.381Z,29.60
2022-12-15T01:23:27.867Z,30.02
2022-12-15T01:25:55.798Z,28.67
2022-12-15T01:28:23.221Z,30.00
2022-12-15T01:30:50.409Z,27.92
2022-12-15T01:33:17.871Z,27.13
2022-12-15T01:35:45.084Z,28.45
2022-12-15T01:38:12.350Z,27.77
2022-12-15T01:40:45.319Z,30.23
2022-12-15T01:43:13.870Z,29.13
2022-12-15T01:45:49.071Z,28.38
2022-12-15T01:48:20.085Z,30.02
2022-12-15T01:50:55.338Z,30.60
2022-12-15T01:53:22.511Z,28.63
2022-12-15T01:55:49.934Z,27.50
2022-12-15T01:58:17.633Z,29.10
2022-12-15T02:00:44.848Z,28.70
2022-12-15T02:03:12.802Z,26.88
2022-12-15T02:05:40.717Z,27.35
2022-12-15T02:08:08.444Z,27.98
2022-12-15T02:10:44.432Z,28.15
2022-12-15T02:13:32.672Z,26.50
2022-12-15T02:16:06.677Z,26.73
2022-12-15T02:18:42.687Z,28.58
2022-12-15T02:21:13.729Z,28.00
2022-12-15T02:24:08.117Z,27.08
2022-12-15T02:26:41.498Z,28.17
2022-12-15T02:29:20.805Z,27.88
2022-12-15T02:31:55.265Z,28.00
2022-12-15T02:34:25.468Z,27.63
2022-12-15T02:36:56.229Z,27.25
2022-12-15T02:39:23.958Z,26.80
2022-12-15T02:41:52.970Z,28.75
2022-12-15T02:44:25.840Z,27.67
2022-12-15T02:47:11.825Z,28.08
2022-12-15T02:49:41.995Z,28.10
2022-12-15T02:52:22.164Z,27.10
2022-12-15T02:55:05.361Z,28.35
2022-12-15T02:57:42.955Z,26.88
2022-12-15T03:00:11.315Z,27.25
2022-12-15T03:02:43.310Z,26.92
2022-12-15T03:05:10.753Z,28.88
2022-12-15T03:07:37.948Z,27.40
2022-12-15T03:10:06.485Z,27.20
2022-12-15T03:12:33.811Z,27.13
2022-12-15T03:15:01.333Z,27.42
2022-12-15T03:17:28.495Z,27.63
2022-12-15T03:19:55.643Z,27.77
2022-12-15T03:22:22.795Z,27.92
2022-12-15T03:24:49.963Z,26.80
2022-12-15T03:27:17.154Z,26.17
2022-12-15T03:29:44.334Z,26.60
2022-12-15T03:32:11.511Z,26.98
2022-12-15T03:34:38.723Z,27.00
2022-12-15T03:37:05.888Z,27.23
2022-12-15T03:39:33.058Z,26.65
2022-12-15T03:42:00.256Z,26.80
2022-12-15T03:44:27.373Z,26.90
2022-12-15T03:47:01.277Z,26.60
2022-12-15T03:49:30.275Z,26.75
2022-12-15T03:51:57.462Z,25.67
2022-12-15T03:54:24.587Z,24.92
2022-12-15T03:56:51.769Z,26.02
2022-12-15T03:59:19.630Z,26.10
2022-12-15T04:01:49.158Z,25.63
2022-12-15T04:04:16.740Z,26.00
2022-12-15T04:06:43.880Z,24.60
2022-12-15T04:09:10.993Z,24.35
2022-12-15T04:11:38.219Z,25.75
2022-12-15T04:14:05.378Z,23.02
2022-12-15T04:16:32.564Z,25.40
2022-12-15T04:19:32.204Z,23.80
2022-12-15T04:22:02.491Z,23.33
2022-12-15T04:24:48.091Z,25.00
2022-12-15T04:27:34.032Z,23.60
2022-12-15T04:30:19.949Z,25.67
2022-12-15T04:33:05.941Z,24.83
2022-12-15T04:35:53.108Z,24.80
2022-12-15T04:38:50.114Z,24.50
2022-12-15T04:41:37.726Z,24.40
2022-12-15T04:44:24.008Z,23.98
2022-12-15T04:49:55.836Z,23.63
2022-12-15T04:52:41.666Z,24.92
2022-12-15T04:55:27.768Z,26.23
2022-12-15T04:58:13.717Z,24.13
2022-12-15T05:00:59.409Z,24.77
2022-12-15T05:03:45.490Z,25.08
2022-12-15T05:06:31.574Z,24.45
2022-12-15T05:09:17.529Z,25.17
2022-12-15T05:12:03.502Z,24.50
2022-12-15T05:14:49.776Z,23.75
2022-12-15T05:17:41.114Z,22.88
2022-12-15T05:20:27.574Z,24.95
2022-12-15T05:23:16.699Z,24.23
2022-12-15T05:26:03.200Z,23.27
2022-12-15T05:28:49.194Z,23.65
2022-12-15T05:31:35.350Z,23.10
2022-12-15T05:34:05.465Z,24.55
2022-12-15T05:36:33.144Z,23.52
2022-12-15T05:39:00.327Z,24.60
2022-12-15T05:41:27.461Z,22.83
2022-12-15T05:43:54.631Z,23.85
2022-12-15T05:46:21.944Z,23.42
2022-12-15T05:48:49.156Z,23.65
2022-12-15T05:51:16.341Z,23.27
2022-12-15T05:53:43.508Z,24.02
2022-12-15T05:56:14.520Z,23.15
2022-12-15T05:58:45.332Z,23.35
2022-12-15T06:01:16.855Z,24.20
2022-12-15T06:03:44.449Z,23.80
2022-12-15T06:06:12.189Z,21.30
2022-12-15T06:08:40.365Z,22.08
2022-12-15T06:11:07.611Z,23.23
2022-12-15T06:13:35.315Z,25.50
2022-12-15T06:16:04.028Z,24.40
2022-12-15T06:18:35.647Z,25.63
2022-12-15T06:21:04.204Z,24.92
2022-12-15T06:23:33.263Z,25.05
2022-12-15T06:26:01.103Z,29.15
2022-12-15T06:28:28.221Z,23.35
2022-12-15T06:30:56.471Z,25.25
2022-12-15T06:33:23.790Z,24.25
2022-12-15T06:35:51.013Z,25.40
2022-12-15T06:38:18.124Z,26.15
2022-12-15T06:40:45.284Z,26.05
2022-12-15T06:43:12.442Z,25.80
2022-12-15T06:45:39.571Z,26.08
2022-12-15T06:48:06.913Z,24.92
2022-12-15T06:50:34.920Z,28.65
2022-12-15T06:53:02.064Z,25.02
2022-12-15T06:55:29.185Z,23.05
2022-12-15T06:57:56.319Z,31.00
2022-12-15T07:00:23.504Z,26.55
2022-12-15T07:02:50.941Z,24.88
2022-12-15T07:05:18.211Z,25.77
2022-12-15T07:07:45.511Z,32.30
2022-12-15T07:10:12.770Z,33.65
2022-12-15T07:12:39.997Z,26.25
2022-12-15T07:15:08.134Z,26.38
2022-12-15T07:17:38.502Z,28.40
2022-12-15T07:20:06.008Z,31.90
2022-12-15T07:22:33.378Z,44.10
2022-12-15T07:25:00.619Z,48.80
2022-12-15T07:27:27.835Z,47.90
2022-12-15T07:29:55.015Z,49.33
2022-12-15T07:32:22.225Z,48.35
2022-12-15T07:34:49.352Z,47.95
2022-12-15T07:37:17.162Z,45.20
2022-12-15T07:39:44.362Z,44.42
2022-12-15T07:42:11.538Z,45.08
2022-12-15T07:44:38.765Z,42.67
2022-12-15T07:47:06.354Z,43.13
2022-12-15T07:49:33.525Z,41.95
2022-12-15T07:52:00.634Z,44.00
2022-12-15T07:54:29.185Z,42.85
2022-12-15T07:56:56.384Z,43.20
2022-12-15T07:59:23.730Z,47.50
2022-12-15T08:01:51.110Z,43.15
2022-12-15T08:04:18.956Z,42.55
2022-12-15T08:06:46.247Z,42.78
2022-12-15T08:09:13.438Z,40.55
2022-12-15T08:11:40.644Z,40.83
2022-12-15T08:14:12.029Z,40.88
2022-12-15T08:16:42.468Z,40.72
2022-12-15T08:19:13.444Z,42.38
2022-12-15T08:21:41.412Z,40.97
2022-12-15T08:24:08.971Z,40.40
2022-12-15T08:26:37.888Z,38.67
2022-12-15T08:31:53.555Z,39.55
2022-12-15T08:34:21.250Z,40.47
2022-12-15T08:36:48.400Z,39.28
2022-12-15T08:39:16.362Z,39.88
2022-12-15T08:41:43.549Z,39.25
2022-12-15T08:44:11.021Z,37.78
2022-12-15T08:46:38.161Z,39.50
2022-12-15T08:49:05.523Z,37.25
2022-12-15T08:51:33.452Z,37.30
2022-12-15T08:54:01.077Z,37.72
2022-12-15T08:56:28.430Z,37.25
2022-12-15T08:59:00.620Z,38.47
2022-12-15T09:01:29.172Z,37.35
2022-12-15T09:03:57.141Z,36.90
2022-12-15T09:06:28.571Z,38.35
2022-12-15T09:08:56.583Z,37.63
2022-12-15T09:11:24.494Z,37.35
2022-12-15T09:13:51.918Z,38.55
2022-12-15T09:16:20.159Z,36.72
2022-12-15T09:18:52.561Z,37.33
2022-12-15T09:21:22.399Z,37.03
2022-12-15T09:23:51.740Z,36.72
2022-12-15T09:26:19.685Z,38.00
2022-12-15T09:28:50.152Z,34.92
2022-12-15T09:31:22.983Z,37.83
2022-12-15T09:33:51.493Z,36.88
2022-12-15T09:36:18.737Z,34.65
2022-12-15T09:38:45.881Z,36.42
2022-12-15T09:41:23.811Z,35.55
2022-12-15T09:43:59.974Z,35.50
2022-12-15T09:46:42.510Z,34.63
2022-12-15T09:49:28.099Z,35.17
2022-12-15T09:52:10.640Z,33.38
2022-12-15T09:54:39.064Z,33.45
2022-12-15T09:57:09.348Z,34.25
2022-12-15T09:59:48.698Z,32.15
2022-12-15T10:02:27.813Z,34.83
2022-12-15T10:05:21.315Z,33.33
2022-12-15T10:07:50.346Z,34.30
2022-12-15T10:10:24.875Z,32.25
2022-12-15T10:15:50.140Z,33.22
2022-12-15T10:18:24.830Z,33.58
2022-12-15T10:20:55.806Z,34.10
2022-12-15T10:23:23.326Z,31.35
2022-12-15T10:25:54.784Z,31.63
2022-12-15T10:28:30.778Z,33.30
2022-12-15T10:31:02.425Z,30.92
2022-12-15T10:33:34.179Z,31.50
2022-12-15T10:36:01.815Z,40.92
2022-12-15T10:38:40.545Z,34.90
2022-12-15T10:41:26.059Z,31.23
2022-12-15T10:43:54.690Z,32.92
2022-12-15T10:46:29.421Z,31.27
2022-12-15T10:48:59.941Z,31.15
2022-12-15T10:51:37.117Z,31.73
2022-12-15T10:54:13.347Z,35.80
2022-12-15T10:56:56.950Z,33.30
2022-12-15T10:59:24.115Z,31.52
2022-12-15T11:01:52.017Z,31.65
2022-12-15T11:04:26.187Z,32.95
2022-12-15T11:06:56.854Z,32.10
2022-12-15T11:09:35.970Z,32.92
2022-12-15T11:12:30.172Z,31.13
2022-12-15T11:14:57.380Z,31.48
2022-12-15T11:17:24.629Z,30.65
2022-12-15T11:20:02.966Z,31.40
2022-12-15T11:22:42.849Z,98.18
2022-12-15T11:25:15.849Z,120.35
2022-12-15T11:27:45.696Z,144.30
2022-12-15T11:30:14.520Z,148.95
2022-12-15T11:33:01.986Z,141.20
2022-12-15T11:35:50.233Z,136.20
2022-12-15T11:38:23.401Z,129.13
2022-12-15T11:40:51.916Z,117.35
2022-12-15T11:43:22.042Z,114.13
2022-12-15T11:46:10.858Z,114.65
2022-12-15T11:48:54.731Z,109.13
2022-12-15T11:51:26.006Z,103.22
2022-12-15T11:53:56.172Z,112.07
2022-12-15T11:56:38.099Z,106.72
2022-12-15T11:59:11.065Z,101.93
2022-12-15T12:01:45.512Z,102.40
2022-12-15T12:04:21.724Z,93.22
2022-12-15T12:06:58.554Z,96.25
2022-12-15T12:09:29.575Z,105.97
2022-12-15T12:12:16.182Z,96.38
2022-12-15T12:14:50.646Z,90.05
2022-12-15T12:17:23.830Z,92.55
2022-12-15T12:19:54.778Z,97.13
2022-12-15T12:22:27.847Z,101.97
2022-12-15T12:25:03.451Z,95.82
2022-12-15T12:27:36.527Z,92.13
2022-12-15T12:30:12.203Z,92.00
2022-12-15T12:32:45.408Z,85.03
2022-12-15T12:35:33.430Z,87.82
2022-12-15T12:38:03.929Z,81.88
2022-12-15T12:40:40.930Z,75.22
2022-12-15T12:43:13.552Z,83.60
2022-12-15T12:45:58.516Z,74.80
2022-12-15T12:48:49.198Z,78.57
2022-12-15T12:51:17.233Z,73.70
2022-12-15T12:53:44.408Z,72.60
2022-12-15T12:56:31.333Z,71.18
2022-12-15T12:58:58.539Z,73.75
2022-12-15T13:01:28.245Z,72.10
2022-12-15T13:04:34.099Z,72.15
2022-12-15T13:07:11.525Z,65.63
2022-12-15T13:09:43.882Z,64.85
2022-12-15T13:12:54.974Z,66.22
2022-12-15T13:15:29.077Z,63.90
2022-12-15T13:17:59.194Z,63.08
2022-12-15T13:20:27.728Z,64.68
2022-12-15T13:22:55.515Z,60.58
2022-12-15T13:25:28.680Z,56.30
2022-12-15T13:27:59.573Z,60.97
2022-12-15T13:30:27.008Z,59.15
2022-12-15T13:32:55.280Z,59.42
2022-12-15T13:35:34.416Z,62.38
2022-12-15T13:38:07.365Z,56.22
2022-12-15T13:40:37.996Z,54.15
2022-12-15T13:43:05.338Z,56.88
2022-12-15T13:45:39.670Z,56.80
2022-12-15T13:48:15.246Z,48.90
2022-12-15T13:50:51.152Z,47.65
2022-12-15T13:53:21.704Z,50.50
2022-12-15T13:55:59.679Z,48.53
2022-12-15T13:58:29.187Z,53.60
2022-12-15T14:00:58.031Z,52.63
2022-12-15T14:03:26.363Z,49.88
2022-12-15T14:05:58.558Z,53.65
2022-12-15T14:08:27.545Z,46.22
2022-12-15T14:10:56.133Z,49.15
2022-12-15T14:13:31.510Z,53.47
2022-12-15T14:16:00.473Z,43.67
2022-12-15T14:18:34.795Z,49.03
2022-12-15T14:21:02.702Z,50.22
2022-12-15T14:23:31.568Z,48.00
2022-12-15T14:26:09.326Z,46.28
2022-12-15T14:28:37.765Z,47.40
2022-12-15T14:31:06.839Z,51.92
2022-12-15T14:33:36.527Z,45.10
2022-12-15T14:36:06.764Z,50.78
2022-12-15T14:38:41.592Z,47.53
2022-12-15T14:41:13.358Z,51.90
2022-12-15T14:43:41.105Z,51.15
2022-12-15T14:46:08.739Z,47.90
2022-12-15T14:48:41.541Z,50.63
2022-12-15T14:51:11.049Z,59.10
2022-12-15T14:53:40.176Z,48.25
2022-12-15T14:56:14.634Z,44.28
2022-12-15T14:58:42.413Z,48.25
2022-12-15T15:01:23.828Z,41.17
2022-12-15T15:03:04.319Z,33.90
2022-12-15T15:03:57.770Z,44.22
2022-12-15T15:06:30.193Z,42.08
2022-12-15T15:08:57.407Z,51.97
2022-12-15T15:11:30.301Z,42.25
2022-12-15T15:13:59.502Z,44.70
2022-12-15T15:16:26.935Z,39.88
2022-12-15T15:18:54.821Z,40.50
2022-12-15T15:21:23.413Z,43.72
2022-12-15T15:24:00.436Z,42.58
2022-12-15T15:26:28.021Z,40.75
2022-12-15T15:28:55.145Z,39.30
2022-12-15T15:31:25.286Z,38.00
2022-12-15T15:33:53.037Z,38.70
2022-12-15T15:36:20.385Z,43.05
2022-12-15T15:38:47.742Z,41.88
2022-12-15T15:41:14.878Z,35.55
2022-12-15T15:43:42.154Z,41.72
2022-12-15T15:46:12.477Z,47.63
2022-12-15T15:48:47.168Z,43.83
2022-12-15T15:51:14.349Z,39.25
2022-12-15T15:53:41.737Z,41.88
2022-12-15T15:56:11.313Z,37.47
2022-12-15T16:03:42.341Z,36.17
2022-12-15T16:06:16.448Z,40.22
2022-12-15T16:08:44.154Z,39.28
2022-12-15T16:11:14.333Z,39.72
2022-12-15T16:13:41.685Z,44.42
2022-12-15T16:16:22.606Z,39.42
2022-12-15T16:18:49.837Z,35.92
2022-12-15T16:21:18.370Z,37.95
2022-12-15T16:23:46.903Z,33.80
2022-12-15T16:26:15.329Z,38.65
2022-12-15T16:28:42.875Z,40.65
2022-12-15T16:31:15.314Z,37.60
2022-12-15T16:33:43.226Z,38.03
2022-12-15T16:36:14.837Z,39.03
2022-12-15T16:38:42.731Z,34.75
2022-12-15T16:41:13.688Z,37.17
2022-12-15T16:43:46.184Z,32.53
2022-12-15T16:46:16.046Z,36.03
2022-12-15T16:48:43.525Z,34.38
2022-12-15T16:51:26.492Z,35.72
2022-12-15T16:53:53.728Z,33.47
2022-12-15T16:56:21.085Z,36.47
2022-12-15T16:58:48.995Z,34.60
2022-12-15T17:01:20.242Z,36.08
2022-12-15T17:03:47.642Z,39.08
2022-12-15T17:06:16.587Z,33.90
2022-12-15T17:08:54.978Z,31.65
2022-12-15T17:11:23.319Z,31.70
2022-12-15T17:13:51.603Z,33.03
2022-12-15T17:16:19.861Z,34.38
2022-12-15T17:18:47.596Z,32.53
2022-12-15T17:21:21.212Z,34.80
2022-12-15T17:23:50.159Z,31.02
2022-12-15T17:26:28.507Z,31.10
2022-12-15T17:28:56.844Z,32.72
2022-12-15T17:31:30.248Z,32.50
2022-12-15T17:34:02.594Z,31.92
2022-12-15T17:36:29.884Z,31.38
2022-12-15T17:39:01.265Z,30.30
2022-12-15T17:41:57.978Z,34.50
2022-12-15T17:44:33.100Z,33.13
2022-12-15T17:47:02.284Z,33.35
2022-12-15T17:49:35.133Z,31.52
2022-12-15T17:52:03.868Z,29.83
2022-12-15T17:54:31.363Z,30.40
2022-12-15T17:56:58.726Z,31.38
2022-12-15T17:59:26.114Z,30.30
2022-12-15T18:01:56.969Z,31.80
2022-12-15T18:04:24.507Z,31.52
2022-12-15T18:06:55.363Z,31.60
2022-12-15T18:09:26.996Z,30.92
2022-12-15T18:11:54.246Z,28.65
2022-12-15T18:14:23.065Z,31.83
2022-12-15T18:16:50.459Z,29.52
2022-12-15T18:19:17.638Z,27.63
2022-12-15T18:21:44.941Z,30.70
2022-12-15T18:24:17.094Z,29.33
2022-12-15T18:26:44.775Z,30.00
2022-12-15T18:29:18.111Z,31.00
2022-12-15T18:31:47.014Z,29.23
2022-12-15T18:34:16.049Z,28.10
2022-12-15T18:36:43.284Z,29.08
2022-12-15T18:39:17.165Z,32.28
2022-12-15T18:41:44.585Z,28.33
2022-12-15T18:44:16.183Z,30.27
2022-12-15T18:46:47.792Z,31.08
2022-12-15T18:49:15.684Z,30.20
2022-12-15T18:51:43.898Z,32.67
2022-12-15T18:54:19.379Z,30.27
2022-12-15T18:56:46.836Z,29.55
2022-12-15T18:59:17.868Z,30.17
2022-12-15T19:01:48.068Z,28.60
2022-12-15T19:04:15.840Z,30.20
2022-12-15T19:06:43.323Z,30.13
2022-12-15T19:09:20.406Z,28.00
2022-12-15T19:12:06.952Z,30.55
2022-12-15T19:14:40.300Z,28.63
2022-12-15T19:17:33.776Z,29.85
2022-12-15T19:20:20.571Z,30.20
2022-12-15T19:22:48.706Z,28.05
2022-12-15T19:25:27.384Z,28.63
2022-12-15T19:27:59.157Z,30.38
2022-12-15T19:30:27.404Z,29.38
2022-12-15T19:32:54.760Z,30.98
2022-12-15T19:35:22.968Z,30.38
2022-12-15T19:37:50.311Z,32.15
2022-12-15T19:40:21.458Z,33.03
2022-12-15T19:42:49.143Z,30.60
2022-12-15T19:45:18.051Z,32.67
2022-12-15T19:47:45.434Z,30.75
2022-12-15T19:50:16.903Z,31.35
2022-12-15T19:52:44.818Z,31.08
2022-12-15T19:55:19.101Z,29.30
2022-12-15T19:57:46.477Z,29.88
2022-12-15T20:00:18.553Z,30.83
2022-12-15T20:02:46.137Z,28.88
2022-12-15T20:05:13.361Z,31.35
2022-12-15T20:07:40.608Z,27.83
2022-12-15T20:10:21.259Z,28.80
2022-12-15T20:12:52.068Z,29.73
2022-12-15T20:15:21.584Z,27.40
2022-12-15T20:17:50.649Z,28.20
2022-12-15T20:20:18.905Z,29.55
2022-12-15T20:22:47.282Z,28.60
2022-12-15T20:25:18.914Z,30.75
2022-12-15T20:27:47.649Z,29.13
2022-12-15T20:30:24.229Z,29.27
2022-12-15T20:32:51.668Z,27.98
2022-12-15T20:35:20.487Z,28.65
2022-12-15T20:37:48.546Z,30.75
2022-12-15T20:40:17.685Z,28.90
2022-12-15T20:42:44.967Z,30.02
2022-12-15T20:45:16.090Z,29.55
2022-12-15T20:47:44.470Z,27.92
2022-12-15T20:50:31.942Z,27.52
2022-12-15T20:52:59.270Z,27.85
2022-12-15T20:55:26.658Z,26.80
2022-12-15T20:57:53.969Z,26.55
2022-12-15T21:00:21.920Z,28.27
2022-12-15T21:02:49.592Z,27.95
2022-12-15T21:05:24.808Z,29.08
2022-12-15T21:07:52.268Z,25.98
2022-12-15T21:10:20.930Z,27.17
2022-12-15T21:12:49.132Z,28.23
2022-12-15T21:15:16.412Z,27.65
2022-12-15T21:17:43.857Z,27.83
2022-12-15T21:20:12.017Z,26.92
2022-12-15T21:22:39.596Z,27.38
2022-12-15T21:25:15.562Z,28.05
2022-12-15T21:27:42.840Z,28.67
2022-12-15T21:30:20.571Z,30.55
2022-12-15T21:32:48.563Z,30.85
2022-12-15T21:35:17.247Z,31.02
2022-12-15T21:37:46.605Z,31.63
2022-12-15T21:40:18.507Z,28.88
2022-12-15T21:42:45.727Z,31.75
2022-12-15T21:45:17.179Z,35.97
2022-12-15T21:48:03.118Z,32.40
2022-12-15T21:50:30.313Z,28.67
2022-12-15T21:52:57.617Z,29.77
2022-12-15T21:55:28.913Z,29.08
2022-12-15T21:57:56.720Z,28.60
2022-12-15T22:00:25.670Z,25.90
2022-12-15T22:02:53.999Z,27.20
2022-12-15T22:05:29.434Z,29.33
2022-12-15T22:07:58.179Z,30.75
2022-12-15T22:10:26.213Z,26.45
2022-12-15T22:12:59.361Z,28.60
2022-12-15T22:15:27.117Z,27.00
2022-12-15T22:17:54.280Z,27.20
2022-12-15T22:20:23.673Z,28.02
2022-12-15T22:22:51.228Z,27.35
2022-12-15T22:25:19.592Z,26.38
2022-12-15T22:27:46.995Z,29.90
2022-12-15T22:30:15.061Z,26.52
2022-12-15T22:32:44.944Z,26.55
2022-12-15T22:35:15.767Z,26.75
2022-12-15T22:37:43.206Z,26.48
2022-12-15T22:40:11.199Z,28.13
2022-12-15T22:42:39.620Z,24.55
2022-12-15T22:45:07.846Z,29.70
2022-12-15T22:47:36.228Z,27.20
2022-12-15T22:50:03.540Z,27.48
2022-12-15T22:52:30.747Z,27.00
2022-12-15T22:54:58.428Z,29.02
2022-12-15T22:57:29.614Z,26.45
2022-12-15T23:00:00.518Z,27.38
2022-12-15T23:02:29.434Z,26.20
2022-12-15T23:04:56.720Z,28.67
2022-12-15T23:07:23.901Z,31.02
2022-12-15T23:10:11.028Z,25.90
2022-12-15T23:12:38.212Z,26.75
2022-12-15T23:15:24.816Z,26.25
2022-12-15T23:17:52.108Z,27.70
2022-12-15T23:20:19.534Z,26.17
2022-12-15T23:22:47.194Z,25.88
2022-12-15T23:25:14.401Z,25.83
2022-12-15T23:27:41.636Z,27.27
2022-12-15T23:30:09.226Z,25.02
2022-12-15T23:32:38.611Z,25.48
2022-12-15T23:35:06.260Z,26.98
2022-12-15T23:37:36.429Z,26.15
2022-12-15T23:40:03.595Z,25.17
2022-12-15T23:42:30.795Z,25.88
2022-12-15T23:44:58.013Z,26.40
2022-12-15T23:47:25.305Z,25.83
2022-12-15T23:49:52.514Z,23.73
2022-12-15T23:52:20.837Z,24.58
2022-12-15T23:54:48.025Z,25.90
2022-12-15T23:57:15.192Z,24.88
2022-12-15T23:59:42.485Z,24.27
